Time;durP1;ratioP1;P1;durP2;ratioP2;P2;SDS_P1;SDS_P2;PMS_P1;PMS_P2;Temp;Humidity;BMP_temperature;BMP_pressure;BME280_temperature;BME280_humidity;BME280_pressure;Samples;Min_cycle;Max_cycle;Signal;HPM_P1;HPM_P2
2021/03/04 00:02:54;;;;;;;59.67;33.90;;;;;;;;;;6286712;28;20139;-74
2021/03/04 00:05:55;;;;;;;61.83;34.05;;;;;;;;;;6285556;28;20044;-75
2021/03/04 00:08:56;;;;;;;65.95;35.53;;;;;;;;;;6285195;28;20040;-73
2021/03/04 00:11:57;;;;;;;64.15;36.40;;;;;;;;;;6287667;28;20052;-77
2021/03/04 00:14:59;;;;;;;62.17;36.15;;;;;;;;;;6287911;28;20059;-77
2021/03/04 00:18:00;;;;;;;67.00;35.58;;;;;;;;;;6285344;28;20047;-75
2021/03/04 00:21:01;;;;;;;66.10;37.38;;;;;;;;;;6293299;28;20151;-73
2021/03/04 00:24:03;;;;;;;62.35;35.95;;;;;;;;;;6292882;28;20113;-74
2021/03/04 00:27:04;;;;;;;65.38;35.28;;;;;;;;;;6298224;28;20709;-73
2021/03/04 00:30:08;;;;;;;65.32;34.45;;;;;;;;;;6294779;28;20135;-73
2021/03/04 00:33:09;;;;;;;63.88;36.50;;;;;;;;;;6289548;28;20055;-74
2021/03/04 00:36:11;;;;;;;63.70;35.03;;;;;;;;;;6287653;28;20055;-75
2021/03/04 00:39:12;;;;;;;69.07;37.50;;;;;;;;;;6290720;28;20044;-75
2021/03/04 00:42:13;;;;;;;64.60;37.67;;;;;;;;;;6291461;28;20118;-74
2021/03/04 00:45:17;;;;;;;69.68;37.47;;;;;;;;;;6290254;28;20040;-73
2021/03/04 00:48:18;;;;;;;64.50;38.28;;;;;;;;;;6290312;28;20271;-73
2021/03/04 00:51:19;;;;;;;66.88;37.22;;;;;;;;;;6291544;28;20040;-73
2021/03/04 00:54:20;;;;;;;68.07;38.95;;;;;;;;;;6290114;28;20077;-74
2021/03/04 00:57:21;;;;;;;68.35;37.83;;;;;;;;;;6288700;28;20040;-73
2021/03/04 01:00:23;;;;;;;73.75;39.20;;;;;;;;;;6290219;28;20062;-73
2021/03/04 01:03:24;;;;;;;69.72;38.33;;;;;;;;;;6276493;28;20409;-73
2021/03/04 01:06:25;;;;;;;67.00;39.83;;;;;;;;;;6288007;28;20045;-72
2021/03/04 01:09:26;;;;;;;71.65;39.28;;;;;;;;;;6291860;28;20054;-73
2021/03/04 01:12:27;;;;;;;66.55;37.88;;;;;;;;;;6288779;28;20185;-74
2021/03/04 01:15:30;;;;;;;67.63;39.05;;;;;;;;;;6291088;28;20114;-73
2021/03/04 01:18:31;;;;;;;76.07;39.28;;;;;;;;;;6288962;28;20074;-75
2021/03/04 01:21:32;;;;;;;71.22;41.08;;;;;;;;;;6288902;28;20064;-73
2021/03/04 01:24:33;;;;;;;66.72;40.00;;;;;;;;;;6294630;28;20139;-73
2021/03/04 01:27:34;;;;;;;73.05;40.63;;;;;;;;;;6297114;28;20398;-73
2021/03/04 01:30:36;;;;;;;70.75;39.85;;;;;;;;;;6291733;28;20182;-74
2021/03/04 01:33:37;;;;;;;67.38;39.03;;;;;;;;;;6295638;28;20055;-75
2021/03/04 01:36:38;;;;;;;72.88;40.92;;;;;;;;;;6296558;28;20391;-75
2021/03/04 01:39:39;;;;;;;65.97;39.40;;;;;;;;;;6294608;28;20182;-74
2021/03/04 01:42:42;;;;;;;71.65;42.13;;;;;;;;;;6293237;28;20066;-77
2021/03/04 01:45:45;;;;;;;70.20;40.85;;;;;;;;;;6290225;28;20421;-73
2021/03/04 01:48:46;;;;;;;67.28;41.35;;;;;;;;;;6298893;28;20045;-77
2021/03/04 01:51:47;;;;;;;72.32;42.75;;;;;;;;;;6291139;28;21103;-73
2021/03/04 01:54:49;;;;;;;68.43;41.97;;;;;;;;;;6291392;28;20503;-72
2021/03/04 01:57:50;;;;;;;69.82;41.70;;;;;;;;;;6288449;28;20128;-73
2021/03/04 02:00:52;;;;;;;69.70;41.58;;;;;;;;;;6290755;28;20128;-72
2021/03/04 02:03:54;;;;;;;75.93;42.70;;;;;;;;;;6578179;23;20056;-74
2021/03/04 02:06:59;;;;;;;75.68;41.75;;;;;;;;;;6289049;28;20047;-73
2021/03/04 02:10:05;;;;;;;70.57;41.78;;;;;;;;;;6285996;28;20127;-73
2021/03/04 02:13:12;;;;;;;68.20;42.72;;;;;;;;;;6290185;28;20093;-75
2021/03/04 02:16:16;;;;;;;69.72;42.03;;;;;;;;;;6289373;28;20089;-73
2021/03/04 02:19:43;;;;;;;69.57;42.10;;;;;;;;;;6292424;28;20132;-76
2021/03/04 02:22:56;;;;;;;66.90;40.90;;;;;;;;;;6286394;28;20477;-74
2021/03/04 02:26:00;;;;;;;74.72;42.03;;;;;;;;;;6291079;28;20159;-74
2021/03/04 02:29:02;;;;;;;71.53;41.95;;;;;;;;;;6290355;28;20140;-71
2021/03/04 02:32:05;;;;;;;73.63;41.92;;;;;;;;;;6290757;28;20048;-71
2021/03/04 02:35:11;;;;;;;69.93;41.88;;;;;;;;;;6288806;28;20585;-71
2021/03/04 02:38:15;;;;;;;72.53;42.60;;;;;;;;;;6287037;28;20132;-72
2021/03/04 02:41:16;;;;;;;73.13;42.95;;;;;;;;;;6292083;28;20040;-72
2021/03/04 02:44:19;;;;;;;67.55;40.70;;;;;;;;;;6286437;28;20142;-71
2021/03/04 02:47:21;;;;;;;66.60;41.20;;;;;;;;;;6290344;28;20513;-73
2021/03/04 02:50:24;;;;;;;65.43;40.40;;;;;;;;;;6288707;28;20050;-73
2021/03/04 02:53:25;;;;;;;72.57;41.28;;;;;;;;;;6286794;28;20051;-72
2021/03/04 02:56:28;;;;;;;69.28;41.95;;;;;;;;;;6284500;28;20705;-71
2021/03/04 02:59:30;;;;;;;68.07;41.38;;;;;;;;;;6286166;28;20045;-72
2021/03/04 03:02:32;;;;;;;68.65;40.60;;;;;;;;;;6281702;28;21597;-71
2021/03/04 03:05:35;;;;;;;65.70;39.33;;;;;;;;;;6276632;28;20053;-71
2021/03/04 03:08:36;;;;;;;67.57;39.88;;;;;;;;;;6266937;28;20490;-72
2021/03/04 03:11:37;;;;;;;66.45;40.15;;;;;;;;;;6261136;28;20406;-71
2021/03/04 03:14:39;;;;;;;67.05;39.58;;;;;;;;;;6263159;28;20106;-71
2021/03/04 03:17:41;;;;;;;69.03;37.63;;;;;;;;;;6264193;28;20664;-74
2021/03/04 03:20:42;;;;;;;69.50;38.22;;;;;;;;;;6268701;28;20430;-71
2021/03/04 03:23:43;;;;;;;62.38;38.33;;;;;;;;;;6264660;28;20067;-72
2021/03/04 03:26:45;;;;;;;60.85;37.40;;;;;;;;;;6263327;28;20041;-72
2021/03/04 03:29:47;;;;;;;65.20;37.08;;;;;;;;;;6275699;28;20044;-71
2021/03/04 03:32:54;;;;;;;57.28;35.05;;;;;;;;;;6268644;28;20129;-72
2021/03/04 03:35:55;;;;;;;61.92;35.03;;;;;;;;;;6266441;28;20049;-74
2021/03/04 03:38:57;;;;;;;65.57;35.67;;;;;;;;;;6268368;28;20041;-71
2021/03/04 03:41:59;;;;;;;64.18;35.95;;;;;;;;;;6271657;28;20411;-72
2021/03/04 03:45:03;;;;;;;61.97;34.20;;;;;;;;;;6265478;28;20489;-71
2021/03/04 03:48:08;;;;;;;61.63;34.85;;;;;;;;;;6260863;28;20136;-72
2021/03/04 03:51:09;;;;;;;62.70;35.75;;;;;;;;;;6265046;28;20142;-75
2021/03/04 03:54:11;;;;;;;61.25;36.78;;;;;;;;;;6264872;28;20047;-71
2021/03/04 03:57:13;;;;;;;67.95;36.38;;;;;;;;;;6261502;28;20056;-71
2021/03/04 04:00:23;;;;;;;63.50;35.63;;;;;;;;;;6264730;28;20749;-71
2021/03/04 04:03:24;;;;;;;66.35;36.30;;;;;;;;;;6267950;28;20716;-73
2021/03/04 04:06:27;;;;;;;68.78;36.75;;;;;;;;;;6265348;28;20060;-72
2021/03/04 04:09:29;;;;;;;61.33;34.78;;;;;;;;;;6271102;28;20070;-73
2021/03/04 04:12:30;;;;;;;65.63;35.55;;;;;;;;;;6263551;28;20843;-72
2021/03/04 04:15:32;;;;;;;65.90;34.25;;;;;;;;;;6265868;28;20094;-72
2021/03/04 04:18:34;;;;;;;62.90;33.97;;;;;;;;;;6262753;28;20556;-72
2021/03/04 04:21:35;;;;;;;62.72;36.45;;;;;;;;;;6261912;28;20113;-74
2021/03/04 04:24:37;;;;;;;66.18;36.38;;;;;;;;;;6261900;28;20128;-72
2021/03/04 04:27:38;;;;;;;62.50;36.63;;;;;;;;;;6262628;28;20099;-72
2021/03/04 04:30:40;;;;;;;57.53;35.05;;;;;;;;;;6261880;28;20411;-73
2021/03/04 04:33:41;;;;;;;63.08;35.25;;;;;;;;;;6269790;28;20059;-73
2021/03/04 04:36:42;;;;;;;60.30;33.38;;;;;;;;;;6264722;28;20072;-72
2021/03/04 04:39:43;;;;;;;63.15;34.50;;;;;;;;;;6269936;28;20080;-73
2021/03/04 04:42:44;;;;;;;66.95;36.47;;;;;;;;;;6261500;28;20052;-72
2021/03/04 04:45:46;;;;;;;62.42;35.65;;;;;;;;;;6262187;28;20128;-71
2021/03/04 04:48:48;;;;;;;64.70;35.67;;;;;;;;;;6265232;28;20049;-73
2021/03/04 04:51:49;;;;;;;62.40;34.65;;;;;;;;;;6268678;28;20464;-72
2021/03/04 04:54:50;;;;;;;67.75;35.30;;;;;;;;;;6262966;28;20127;-72
2021/03/04 04:57:51;;;;;;;63.00;35.35;;;;;;;;;;6268773;28;20156;-74
2021/03/04 05:00:53;;;;;;;62.10;34.58;;;;;;;;;;6261606;28;20041;-72
2021/03/04 05:03:54;;;;;;;68.03;36.25;;;;;;;;;;6261999;28;20045;-73
2021/03/04 05:06:55;;;;;;;61.03;34.72;;;;;;;;;;6262658;28;20466;-73
2021/03/04 05:09:56;;;;;;;67.50;34.13;;;;;;;;;;6262716;28;20506;-72
2021/03/04 05:12:57;;;;;;;61.45;35.40;;;;;;;;;;6260866;28;20545;-72
2021/03/04 05:15:59;;;;;;;63.15;35.58;;;;;;;;;;6271803;28;20049;-72
2021/03/04 05:19:00;;;;;;;70.95;36.10;;;;;;;;;;6273344;28;20099;-73
2021/03/04 05:22:01;;;;;;;65.90;34.97;;;;;;;;;;6270815;28;20212;-73
2021/03/04 05:25:03;;;;;;;65.85;36.30;;;;;;;;;;6266970;28;20127;-72
2021/03/04 05:28:04;;;;;;;60.47;35.13;;;;;;;;;;6271789;28;20139;-73
2021/03/04 05:31:06;;;;;;;63.85;34.78;;;;;;;;;;6271876;28;20128;-72
2021/03/04 05:34:07;;;;;;;57.63;34.67;;;;;;;;;;6271153;28;20079;-72
2021/03/04 05:37:08;;;;;;;63.30;35.85;;;;;;;;;;6270845;28;20140;-70
2021/03/04 05:40:10;;;;;;;64.88;36.28;;;;;;;;;;6267301;28;20049;-70
2021/03/04 05:43:11;;;;;;;60.58;35.78;;;;;;;;;;6269960;28;20041;-70
2021/03/04 05:46:14;;;;;;;64.13;36.05;;;;;;;;;;6269405;28;20124;-70
2021/03/04 05:49:18;;;;;;;61.10;36.63;;;;;;;;;;6270236;28;20068;-70
2021/03/04 05:52:19;;;;;;;67.28;35.85;;;;;;;;;;6264874;28;20048;-71
2021/03/04 05:55:21;;;;;;;65.53;36.28;;;;;;;;;;6270735;28;20739;-71
2021/03/04 05:58:22;;;;;;;67.38;37.13;;;;;;;;;;6267663;28;20147;-71
2021/03/04 06:01:24;;;;;;;62.83;35.72;;;;;;;;;;6265813;28;20235;-71
2021/03/04 06:04:25;;;;;;;66.35;37.28;;;;;;;;;;6260967;28;20053;-71
2021/03/04 06:07:26;;;;;;;68.47;37.97;;;;;;;;;;6264411;28;20053;-72
2021/03/04 06:10:28;;;;;;;60.95;35.85;;;;;;;;;;6270236;28;20437;-71
2021/03/04 06:13:29;;;;;;;70.22;36.78;;;;;;;;;;6270854;28;20048;-72
2021/03/04 06:16:31;;;;;;;64.95;36.40;;;;;;;;;;6266087;28;20045;-71
2021/03/04 06:19:32;;;;;;;66.20;37.53;;;;;;;;;;6264384;28;20539;-71
2021/03/04 06:22:34;;;;;;;64.38;36.00;;;;;;;;;;6261712;28;20049;-72
2021/03/04 06:25:36;;;;;;;69.80;36.28;;;;;;;;;;6264298;28;20045;-72
2021/03/04 06:28:37;;;;;;;72.97;36.88;;;;;;;;;;6264539;28;20136;-71
2021/03/04 06:31:39;;;;;;;66.47;36.60;;;;;;;;;;6266081;28;20144;-71
2021/03/04 06:34:40;;;;;;;65.82;36.50;;;;;;;;;;6265596;28;20441;-72
2021/03/04 06:37:42;;;;;;;66.88;37.13;;;;;;;;;;6266452;28;20539;-73
2021/03/04 06:40:44;;;;;;;61.03;35.55;;;;;;;;;;6268648;28;20132;-71
2021/03/04 06:43:45;;;;;;;65.28;36.45;;;;;;;;;;6256690;28;20072;-71
2021/03/04 06:46:47;;;;;;;65.00;36.85;;;;;;;;;;6266952;28;20057;-70
2021/03/04 06:49:49;;;;;;;59.97;32.75;;;;;;;;;;6269403;28;20068;-73
2021/03/04 06:52:50;;;;;;;58.38;33.80;;;;;;;;;;6265550;28;20167;-71
2021/03/04 06:55:53;;;;;;;53.88;32.58;;;;;;;;;;6261015;28;20055;-71
2021/03/04 06:58:59;;;;;;;60.70;33.67;;;;;;;;;;6260120;28;20047;-71
2021/03/04 07:02:01;;;;;;;58.70;31.75;;;;;;;;;;6255747;28;20073;-72
2021/03/04 07:05:05;;;;;;;55.08;32.53;;;;;;;;;;6257719;28;20617;-70
2021/03/04 07:08:06;;;;;;;53.28;31.40;;;;;;;;;;6260446;28;20047;-70
2021/03/04 07:11:08;;;;;;;55.97;31.23;;;;;;;;;;6257603;28;20140;-71
2021/03/04 07:14:10;;;;;;;53.58;30.52;;;;;;;;;;6261899;28;20131;-71
2021/03/04 07:17:12;;;;;;;51.45;28.30;;;;;;;;;;6261121;28;20163;-72
2021/03/04 07:20:14;;;;;;;56.88;29.38;;;;;;;;;;6267567;28;20128;-72
2021/03/04 07:23:15;;;;;;;50.53;30.35;;;;;;;;;;6276059;28;20063;-72
2021/03/04 07:26:17;;;;;;;55.35;29.58;;;;;;;;;;6243540;28;20824;-73
2021/03/04 07:29:22;;;;;;;54.85;30.95;;;;;;;;;;6250425;28;20140;-72
2021/03/04 07:32:24;;;;;;;54.75;30.08;;;;;;;;;;6259983;28;20051;-72
2021/03/04 07:35:25;;;;;;;62.60;29.73;;;;;;;;;;6258431;28;20108;-73
2021/03/04 07:38:27;;;;;;;61.30;29.70;;;;;;;;;;6259048;28;20049;-70
2021/03/04 07:41:35;;;;;;;55.40;29.13;;;;;;;;;;6258399;28;21666;-71
2021/03/04 07:44:36;;;;;;;56.38;28.33;;;;;;;;;;6258043;28;20049;-72
2021/03/04 07:47:38;;;;;;;52.47;29.25;;;;;;;;;;6257794;28;20051;-71
2021/03/04 07:50:42;;;;;;;47.10;27.30;;;;;;;;;;6254009;28;20059;-71
2021/03/04 07:53:45;;;;;;;50.90;29.38;;;;;;;;;;6252735;28;20041;-71
2021/03/04 07:56:46;;;;;;;49.88;28.00;;;;;;;;;;6251553;28;20348;-72
2021/03/04 07:59:52;;;;;;;51.20;26.65;;;;;;;;;;6249197;28;20120;-72
2021/03/04 08:03:02;;;;;;;52.08;28.98;;;;;;;;;;6255007;28;20487;-72
2021/03/04 08:06:03;;;;;;;55.67;32.75;;;;;;;;;;6256650;28;20083;-72
2021/03/04 08:09:05;;;;;;;68.20;37.40;;;;;;;;;;6253482;28;20458;-73
2021/03/04 08:12:07;;;;;;;64.53;39.20;;;;;;;;;;6256239;28;20044;-72
2021/03/04 08:15:10;;;;;;;72.47;37.78;;;;;;;;;;6259620;28;20555;-71
2021/03/04 08:18:19;;;;;;;71.13;39.65;;;;;;;;;;6255720;28;20175;-71
2021/03/04 08:21:20;;;;;;;67.22;39.08;;;;;;;;;;6254162;28;20044;-73
2021/03/04 08:24:21;;;;;;;64.15;38.75;;;;;;;;;;6256777;28;20079;-71
2021/03/04 08:27:23;;;;;;;75.63;39.88;;;;;;;;;;6258679;28;20065;-72
2021/03/04 08:30:28;;;;;;;63.55;39.35;;;;;;;;;;6259400;28;20118;-73
2021/03/04 08:33:30;;;;;;;61.25;35.17;;;;;;;;;;6254408;28;20095;-74
2021/03/04 08:36:41;;;;;;;49.38;26.98;;;;;;;;;;6257836;28;20138;-72
2021/03/04 08:39:42;;;;;;;50.65;25.48;;;;;;;;;;6256507;28;20045;-72
2021/03/04 08:42:43;;;;;;;49.08;24.95;;;;;;;;;;6261139;28;20105;-71
2021/03/04 08:45:45;;;;;;;42.35;23.50;;;;;;;;;;6261995;28;20049;-71
2021/03/04 08:48:48;;;;;;;40.47;23.10;;;;;;;;;;6266988;28;20474;-73
2021/03/04 08:51:49;;;;;;;46.67;23.20;;;;;;;;;;6268814;28;20045;-72
2021/03/04 08:54:52;;;;;;;38.95;22.10;;;;;;;;;;6267404;28;20087;-71
2021/03/04 08:57:53;;;;;;;36.88;20.33;;;;;;;;;;6271129;28;20060;-72
2021/03/04 09:00:55;;;;;;;41.55;19.42;;;;;;;;;;6267521;28;20130;-73
2021/03/04 09:03:57;;;;;;;37.50;18.80;;;;;;;;;;6265689;28;20132;-73
2021/03/04 09:06:58;;;;;;;32.90;19.08;;;;;;;;;;6268609;28;20099;-71
2021/03/04 09:10:00;;;;;;;35.03;18.15;;;;;;;;;;6261846;28;20051;-71
2021/03/04 09:13:01;;;;;;;38.90;21.15;;;;;;;;;;6258357;28;20106;-71
2021/03/04 09:16:05;;;;;;;29.90;17.20;;;;;;;;;;6261043;28;20132;-74
2021/03/04 09:19:07;;;;;;;;;;;;;;;;;;6260478;28;20115;-71
2021/03/04 09:22:10;;;;;;;19.30;12.10;;;;;;;;;;6258440;28;20035;-71
2021/03/04 09:25:13;;;;;;;22.70;12.70;;;;;;;;;;6253395;28;20190;-71
2021/03/04 09:28:15;;;;;;;27.38;14.82;;;;;;;;;;6255163;28;20054;-71
2021/03/04 09:31:16;;;;;;;21.20;11.15;;;;;;;;;;6258328;28;20060;-74
2021/03/04 09:34:19;;;;;;;18.00;10.90;;;;;;;;;;6262258;28;20076;-73
2021/03/04 09:37:23;;;;;;;24.58;11.65;;;;;;;;;;6257549;28;20061;-71
2021/03/04 09:40:28;;;;;;;23.70;13.40;;;;;;;;;;6263334;28;20100;-71
2021/03/04 09:43:39;;;;;;;23.15;11.77;;;;;;;;;;6262276;28;20472;-74
2021/03/04 09:46:43;;;;;;;23.35;13.30;;;;;;;;;;6261441;28;20040;-72
2021/03/04 09:49:44;;;;;;;;;;;;;;;;;;6260209;28;20045;-76
2021/03/04 09:52:46;;;;;;;19.67;12.45;;;;;;;;;;6262602;28;20654;-72
2021/03/04 09:55:47;;;;;;;18.65;11.60;;;;;;;;;;6265087;28;20051;-72
2021/03/04 09:58:49;;;;;;;24.83;12.85;;;;;;;;;;6265401;28;20407;-74
2021/03/04 10:01:50;;;;;;;22.73;13.23;;;;;;;;;;6266089;28;20044;-72
2021/03/04 10:04:53;;;;;;;26.10;14.32;;;;;;;;;;6263696;28;20527;-73
2021/03/04 10:07:56;;;;;;;21.40;13.77;;;;;;;;;;6263179;28;20535;-73
2021/03/04 10:10:57;;;;;;;21.50;13.73;;;;;;;;;;6265649;28;20392;-73
2021/03/04 10:14:09;;;;;;;24.13;13.43;;;;;;;;;;6265190;28;20049;-73
2021/03/04 10:17:10;;;;;;;22.85;13.27;;;;;;;;;;6259922;28;20081;-73
2021/03/04 10:20:13;;;;;;;20.83;12.02;;;;;;;;;;6261602;28;20087;-75
2021/03/04 10:23:15;;;;;;;20.92;11.55;;;;;;;;;;6262423;28;20145;-75
2021/03/04 10:26:16;;;;;;;17.25;12.07;;;;;;;;;;6261504;28;20106;-74
2021/03/04 10:29:17;;;;;;;18.98;11.00;;;;;;;;;;6266266;28;20041;-74
2021/03/04 10:32:18;;;;;;;15.50;10.30;;;;;;;;;;6257913;28;20505;-73
2021/03/04 10:35:21;;;;;;;20.08;11.30;;;;;;;;;;6256947;28;20426;-73
2021/03/04 10:38:22;;;;;;;17.02;11.00;;;;;;;;;;6258538;28;20072;-72
2021/03/04 10:41:23;;;;;;;16.05;11.18;;;;;;;;;;6260261;28;20127;-73
2021/03/04 10:44:24;;;;;;;16.25;10.50;;;;;;;;;;6259371;28;20047;-73
2021/03/04 10:47:25;;;;;;;19.90;10.05;;;;;;;;;;6260003;28;20363;-73
2021/03/04 10:50:28;;;;;;;20.08;10.70;;;;;;;;;;6262723;28;20057;-74
2021/03/04 10:53:29;;;;;;;18.95;10.95;;;;;;;;;;6259559;28;20064;-73
2021/03/04 10:56:30;;;;;;;14.52;10.20;;;;;;;;;;6258763;28;20068;-73
2021/03/04 10:59:31;;;;;;;15.02;9.95;;;;;;;;;;6263485;28;20052;-75
2021/03/04 11:02:32;;;;;;;15.27;10.55;;;;;;;;;;6261210;28;20045;-73
2021/03/04 11:05:34;;;;;;;18.25;11.18;;;;;;;;;;6266805;28;20501;-74
2021/03/04 11:08:35;;;;;;;17.15;11.10;;;;;;;;;;6255346;28;20116;-74
2021/03/04 11:11:36;;;;;;;17.75;11.32;;;;;;;;;;6261107;28;20128;-72
2021/03/04 11:14:38;;;;;;;19.08;9.88;;;;;;;;;;6261958;28;20342;-74
2021/03/04 11:17:39;;;;;;;17.70;10.93;;;;;;;;;;6269855;28;20048;-73
2021/03/04 11:20:43;;;;;;;14.68;9.27;;;;;;;;;;6270228;28;20083;-73
2021/03/04 11:23:44;;;;;;;20.33;9.70;;;;;;;;;;6267121;28;20552;-74
2021/03/04 11:26:45;;;;;;;16.00;10.10;;;;;;;;;;6269501;28;20057;-73
2021/03/04 11:29:47;;;;;;;21.70;10.15;;;;;;;;;;6268471;28;20072;-76
2021/03/04 11:32:48;;;;;;;17.63;10.02;;;;;;;;;;6272537;28;20043;-75
2021/03/04 11:35:50;;;;;;;14.50;9.00;;;;;;;;;;6266957;28;20045;-73
2021/03/04 11:38:51;;;;;;;14.13;9.48;;;;;;;;;;6270955;28;20072;-75
2021/03/04 11:41:52;;;;;;;18.90;9.85;;;;;;;;;;6266934;28;20102;-73
2021/03/04 11:44:53;;;;;;;16.33;8.88;;;;;;;;;;6269071;28;20048;-73
2021/03/04 11:47:55;;;;;;;14.98;9.02;;;;;;;;;;6270200;28;20049;-74
2021/03/04 11:50:57;;;;;;;13.25;9.27;;;;;;;;;;6272591;28;20131;-73
2021/03/04 11:53:58;;;;;;;15.82;10.10;;;;;;;;;;6257564;28;20120;-74
2021/03/04 11:56:59;;;;;;;18.65;10.95;;;;;;;;;;6268992;28;20132;-73
2021/03/04 12:00:00;;;;;;;17.83;9.73;;;;;;;;;;6265590;28;20091;-74
2021/03/04 12:03:01;;;;;;;15.27;9.05;;;;;;;;;;6267501;28;20132;-73
2021/03/04 12:06:03;;;;;;;15.23;9.38;;;;;;;;;;6267221;28;20045;-73
2021/03/04 12:09:05;;;;;;;18.08;10.13;;;;;;;;;;6263559;28;20132;-74
2021/03/04 12:12:07;;;;;;;14.10;9.63;;;;;;;;;;6268821;28;20056;-74
2021/03/04 12:15:09;;;;;;;19.45;10.10;;;;;;;;;;6269668;28;20052;-73
2021/03/04 12:18:10;;;;;;;14.00;9.75;;;;;;;;;;6259715;28;20135;-73
2021/03/04 12:21:12;;;;;;;18.73;11.35;;;;;;;;;;6266062;28;20539;-75
2021/03/04 12:24:13;;;;;;;15.27;9.95;;;;;;;;;;6264790;28;20132;-74
2021/03/04 12:27:14;;;;;;;17.30;10.63;;;;;;;;;;6260741;28;20106;-74
2021/03/04 12:30:17;;;;;;;15.80;10.40;;;;;;;;;;6259116;28;20124;-73
2021/03/04 12:33:18;;;;;;;15.15;10.55;;;;;;;;;;6258447;28;20444;-74
2021/03/04 12:36:20;;;;;;;21.30;11.18;;;;;;;;;;6257573;28;20037;-74
2021/03/04 12:39:21;;;;;;;15.63;10.15;;;;;;;;;;6258635;28;20127;-72
2021/03/04 12:42:22;;;;;;;17.45;10.50;;;;;;;;;;6256610;28;20371;-75
2021/03/04 12:45:24;;;;;;;14.32;10.88;;;;;;;;;;6259733;28;20103;-73
2021/03/04 12:48:26;;;;;;;14.93;10.20;;;;;;;;;;6257441;28;20049;-73
2021/03/04 12:51:28;;;;;;;16.60;10.38;;;;;;;;;;6258359;28;20773;-72
2021/03/04 12:54:29;;;;;;;18.52;10.68;;;;;;;;;;6257142;28;20041;-72
2021/03/04 12:57:30;;;;;;;18.30;10.10;;;;;;;;;;6257957;28;20079;-74
2021/03/04 13:00:31;;;;;;;18.15;10.18;;;;;;;;;;6255286;28;20131;-74
2021/03/04 13:03:33;;;;;;;17.48;9.63;;;;;;;;;;6258881;28;20474;-73
2021/03/04 13:06:35;;;;;;;14.68;9.68;;;;;;;;;;6261449;28;20044;-76
2021/03/04 13:09:36;;;;;;;16.48;10.98;;;;;;;;;;6259166;28;20048;-74
2021/03/04 13:12:37;;;;;;;16.85;10.38;;;;;;;;;;6258197;28;20052;-73
2021/03/04 13:15:38;;;;;;;19.20;11.00;;;;;;;;;;6260606;28;20062;-73
2021/03/04 13:18:39;;;;;;;17.17;9.43;;;;;;;;;;6258242;28;20049;-75
2021/03/04 13:21:42;;;;;;;18.85;10.23;;;;;;;;;;6260406;28;20190;-72
2021/03/04 13:24:43;;;;;;;17.73;10.40;;;;;;;;;;6258121;28;20071;-73
2021/03/04 13:27:44;;;;;;;16.27;10.52;;;;;;;;;;6265269;28;20076;-73
2021/03/04 13:30:45;;;;;;;18.27;10.07;;;;;;;;;;6264425;28;20081;-74
2021/03/04 13:33:46;;;;;;;17.75;10.32;;;;;;;;;;6264660;28;20045;-73
2021/03/04 13:36:48;;;;;;;15.48;10.23;;;;;;;;;;6265103;28;20053;-75
2021/03/04 13:39:49;;;;;;;18.45;10.32;;;;;;;;;;6262877;28;21270;-76
2021/03/04 13:42:50;;;;;;;17.17;10.10;;;;;;;;;;6258056;28;20048;-77
2021/03/04 13:45:51;;;;;;;13.43;10.00;;;;;;;;;;6260261;28;20045;-74
2021/03/04 13:48:52;;;;;;;17.05;10.35;;;;;;;;;;6258940;28;20045;-73
2021/03/04 13:51:54;;;;;;;17.20;10.27;;;;;;;;;;6259907;28;20855;-73
2021/03/04 13:54:55;;;;;;;14.93;9.82;;;;;;;;;;6263298;28;20051;-74
2021/03/04 13:57:56;;;;;;;15.60;9.20;;;;;;;;;;6258283;28;20551;-73
2021/03/04 14:00:58;;;;;;;16.80;9.70;;;;;;;;;;5910441;28;10000250;-74
2021/03/04 14:03:59;;;;;;;14.82;8.98;;;;;;;;;;6262666;28;20053;-72
2021/03/04 14:07:01;;;;;;;19.45;9.00;;;;;;;;;;6265759;28;20068;-73
2021/03/04 14:10:03;;;;;;;16.83;9.40;;;;;;;;;;6263915;28;21109;-73
2021/03/04 14:13:04;;;;;;;22.27;10.32;;;;;;;;;;6263444;28;20068;-76
2021/03/04 14:16:05;;;;;;;14.05;8.85;;;;;;;;;;6261261;28;20079;-73
2021/03/04 14:19:06;;;;;;;18.60;9.55;;;;;;;;;;6273063;28;20090;-73
2021/03/04 14:22:08;;;;;;;14.57;8.90;;;;;;;;;;6267117;28;20080;-74
2021/03/04 14:25:10;;;;;;;16.83;8.55;;;;;;;;;;6268414;28;20504;-76
2021/03/04 14:28:12;;;;;;;16.92;9.27;;;;;;;;;;6264456;28;20052;-75
2021/03/04 14:31:13;;;;;;;16.75;9.55;;;;;;;;;;6260257;28;20699;-77
2021/03/04 14:34:14;;;;;;;17.88;10.23;;;;;;;;;;6260232;28;20045;-73
2021/03/04 14:37:16;;;;;;;16.42;9.88;;;;;;;;;;6262178;28;20057;-75
2021/03/04 14:40:18;;;;;;;16.77;9.98;;;;;;;;;;6259829;28;20052;-73
2021/03/04 14:43:19;;;;;;;22.05;10.05;;;;;;;;;;6263174;28;20049;-73
2021/03/04 14:46:20;;;;;;;16.13;9.88;;;;;;;;;;6264653;28;20179;-73
2021/03/04 14:49:21;;;;;;;16.13;8.98;;;;;;;;;;6263973;28;20060;-74
2021/03/04 14:52:23;;;;;;;13.95;9.20;;;;;;;;;;6264478;28;20076;-73
2021/03/04 14:55:24;;;;;;;17.17;9.73;;;;;;;;;;6262420;28;20064;-74
2021/03/04 14:58:25;;;;;;;15.45;9.10;;;;;;;;;;6257034;28;20781;-74
2021/03/04 15:01:26;;;;;;;29.50;10.60;;;;;;;;;;6266249;28;20098;-75
2021/03/04 15:04:27;;;;;;;22.98;9.68;;;;;;;;;;6262004;28;20037;-75
2021/03/04 15:07:29;;;;;;;15.50;8.38;;;;;;;;;;6267825;28;20137;-75
2021/03/04 15:10:30;;;;;;;15.65;8.43;;;;;;;;;;6261964;28;20136;-74
2021/03/04 15:13:31;;;;;;;15.27;9.07;;;;;;;;;;6259818;28;20049;-73
2021/03/04 15:16:33;;;;;;;14.20;9.88;;;;;;;;;;6259320;28;20579;-74
2021/03/04 15:19:34;;;;;;;18.55;9.13;;;;;;;;;;6261657;28;20155;-74
2021/03/04 15:22:36;;;;;;;11.40;8.57;;;;;;;;;;6259089;28;20060;-74
2021/03/04 15:25:37;;;;;;;23.88;9.18;;;;;;;;;;6260155;28;20048;-74
2021/03/04 15:28:38;;;;;;;17.63;10.45;;;;;;;;;;6257506;28;20458;-74
2021/03/04 15:31:39;;;;;;;13.80;9.35;;;;;;;;;;6261913;28;20045;-74
2021/03/04 15:34:40;;;;;;;15.32;10.55;;;;;;;;;;6263846;28;20200;-74
2021/03/04 15:37:43;;;;;;;17.48;9.90;;;;;;;;;;6262687;28;20111;-75
2021/03/04 15:40:44;;;;;;;23.50;10.05;;;;;;;;;;6263570;28;20131;-75
2021/03/04 15:43:45;;;;;;;18.73;9.50;;;;;;;;;;6266684;28;20156;-76
2021/03/04 15:46:46;;;;;;;20.73;10.55;;;;;;;;;;6265506;28;20387;-75
2021/03/04 15:49:47;;;;;;;16.20;9.95;;;;;;;;;;6260341;28;20045;-75
2021/03/04 15:52:49;;;;;;;14.48;10.60;;;;;;;;;;6255944;28;20196;-75
2021/03/04 15:55:50;;;;;;;16.23;10.27;;;;;;;;;;6254862;28;20128;-75
2021/03/04 15:58:51;;;;;;;14.23;10.45;;;;;;;;;;6253633;28;20082;-75
2021/03/04 16:01:53;;;;;;;18.77;10.02;;;;;;;;;;6253577;28;20049;-73
2021/03/04 16:04:54;;;;;;;17.70;10.43;;;;;;;;;;6254377;28;20061;-76
2021/03/04 16:07:56;;;;;;;23.70;9.82;;;;;;;;;;6256639;28;20738;-74
2021/03/04 16:10:58;;;;;;;13.40;10.02;;;;;;;;;;6258800;28;20055;-74
2021/03/04 16:13:59;;;;;;;16.27;10.38;;;;;;;;;;6254987;28;20590;-73
2021/03/04 16:17:00;;;;;;;16.17;10.15;;;;;;;;;;6254655;28;20057;-74
2021/03/04 16:20:01;;;;;;;20.45;10.82;;;;;;;;;;6252223;28;20040;-74
2021/03/04 16:23:04;;;;;;;17.67;10.93;;;;;;;;;;6256179;28;20155;-74
2021/03/04 16:26:05;;;;;;;28.77;11.13;;;;;;;;;;6258286;28;20056;-73
2021/03/04 16:29:06;;;;;;;23.17;11.23;;;;;;;;;;6259521;28;20053;-72
2021/03/04 16:32:07;;;;;;;31.48;12.18;;;;;;;;;;6254680;28;20072;-73
2021/03/04 16:35:10;;;;;;;22.75;11.38;;;;;;;;;;6254674;28;20116;-74
2021/03/04 16:38:12;;;;;;;16.02;10.70;;;;;;;;;;6256132;28;20347;-74
2021/03/04 16:41:13;;;;;;;22.30;11.43;;;;;;;;;;6258490;28;20049;-74
2021/03/04 16:44:15;;;;;;;19.25;11.93;;;;;;;;;;6257588;28;20056;-73
2021/03/04 16:47:16;;;;;;;21.45;11.50;;;;;;;;;;6259638;28;20126;-77
2021/03/04 16:50:18;;;;;;;21.85;11.93;;;;;;;;;;6259744;28;20124;-75
2021/03/04 16:53:20;;;;;;;18.25;12.48;;;;;;;;;;6258919;28;20033;-73
2021/03/04 16:56:21;;;;;;;22.83;12.07;;;;;;;;;;6254636;28;20436;-73
2021/03/04 16:59:22;;;;;;;21.38;12.48;;;;;;;;;;6260480;28;20053;-73
2021/03/04 17:02:23;;;;;;;21.25;12.75;;;;;;;;;;6259536;28;20064;-71
2021/03/04 17:05:25;;;;;;;20.40;13.27;;;;;;;;;;6262181;28;20128;-73
2021/03/04 17:08:27;;;;;;;21.98;12.98;;;;;;;;;;6261753;28;20558;-74
2021/03/04 17:11:28;;;;;;;22.13;12.95;;;;;;;;;;6262747;28;20249;-73
2021/03/04 17:14:29;;;;;;;21.35;12.75;;;;;;;;;;6259107;28;20059;-73
2021/03/04 17:17:30;;;;;;;24.52;13.30;;;;;;;;;;6261873;28;20128;-74
2021/03/04 17:20:32;;;;;;;23.48;13.48;;;;;;;;;;6259253;28;20049;-74
2021/03/04 17:23:34;;;;;;;23.10;13.15;;;;;;;;;;6265455;28;20135;-75
2021/03/04 17:26:35;;;;;;;21.00;12.45;;;;;;;;;;6262501;28;20676;-73
2021/03/04 17:29:36;;;;;;;24.48;12.57;;;;;;;;;;6262109;28;20236;-75
2021/03/04 17:32:37;;;;;;;22.13;11.77;;;;;;;;;;6255999;28;20041;-75
2021/03/04 17:35:38;;;;;;;19.73;11.85;;;;;;;;;;6260367;28;20145;-74
2021/03/04 17:38:40;;;;;;;23.05;12.05;;;;;;;;;;6254851;28;20136;-73
2021/03/04 17:41:41;;;;;;;17.90;10.93;;;;;;;;;;6256954;28;20041;-74